Time;durP1;ratioP1;P1;durP2;ratioP2;P2;SDS_P1;SDS_P2;PMS_P1;PMS_P2;Temp;Humidity;BMP_temperature;BMP_pressure;BME280_temperature;BME280_humidity;BME280_pressure;Samples;Min_cycle;Max_cycle;Signal;HPM_P1;HPM_P2
2022/06/28 00:01:35;;;;;;;;;;;18.00;99.90;;;;;;5092127;28;20018;-69
2022/06/28 00:04:02;;;;;;;;;;;17.90;99.90;;;;;;5091861;28;20299;-69
2022/06/28 00:06:29;;;;;;;;;;;17.90;99.90;;;;;;5091679;28;19924;-69
2022/06/28 00:08:56;;;;;;;;;;;17.90;99.90;;;;;;5092063;28;19931;-68
2022/06/28 00:11:24;;;;;;;;;;;17.80;99.90;;;;;;5092100;28;19924;-68
2022/06/28 00:13:51;;;;;;;;;;;17.80;99.90;;;;;;5091838;28;19932;-67
2022/06/28 00:16:18;;;;;;;;;;;17.80;99.90;;;;;;5091671;28;19932;-71
2022/06/28 00:18:45;;;;;;;;;;;17.80;99.90;;;;;;5091811;28;20444;-67
2022/06/28 00:21:13;;;;;;;;;;;17.80;99.90;;;;;;5091993;28;19947;-67
2022/06/28 00:23:42;;;;;;;;;;;17.80;99.90;;;;;;5092052;28;19931;-67
2022/06/28 00:26:10;;;;;;;;;;;17.70;99.90;;;;;;5091569;28;20011;-69
2022/06/28 00:28:38;;;;;;;;;;;17.80;99.90;;;;;;5092007;28;19927;-67
2022/06/28 00:31:05;;;;;;;;;;;17.80;99.90;;;;;;5091901;28;20300;-69
2022/06/28 00:33:32;;;;;;;;;;;17.70;99.90;;;;;;5091515;28;19928;-68
2022/06/28 00:35:59;;;;;;;;;;;17.70;99.90;;;;;;5091733;28;19928;-68
2022/06/28 00:38:25;;;;;;;;;;;17.70;99.90;;;;;;5091894;28;19931;-69
2022/06/28 00:40:53;;;;;;;;;;;17.60;99.90;;;;;;5091908;28;19931;-68
2022/06/28 00:43:21;;;;;;;;;;;17.60;99.90;;;;;;5091739;28;20299;-68
2022/06/28 00:45:53;;;;;;;;;;;17.60;99.90;;;;;;5091609;28;20015;-68
2022/06/28 00:48:20;;;;;;;;;;;17.60;99.90;;;;;;5091783;28;19928;-68
2022/06/28 00:50:47;;;;;;;;;;;17.50;99.90;;;;;;5091710;28;19924;-68
2022/06/28 00:53:14;;;;;;;;;;;17.40;99.90;;;;;;5091641;28;19924;-69
2022/06/28 00:55:42;;;;;;;;;;;17.40;99.90;;;;;;5091157;28;20417;-69
2022/06/28 00:58:09;;;;;;;;;;;17.40;99.90;;;;;;5091642;28;20203;-68
2022/06/28 01:00:38;;;;;;;;;;;17.40;99.90;;;;;;5092004;28;19924;-69
2022/06/28 01:03:06;;;;;;;;;;;17.30;99.90;;;;;;5091936;28;19924;-68
2022/06/28 01:05:34;;;;;;;;;;;17.40;99.90;;;;;;5091895;28;19925;-68
2022/06/28 01:08:01;;;;;;;;;;;17.40;99.90;;;;;;5091623;28;19924;-68
2022/06/28 01:10:28;;;;;;;;;;;17.30;99.90;;;;;;5091525;28;20447;-68
2022/06/28 01:12:55;;;;;;;;;;;17.30;99.90;;;;;;5091437;28;19931;-68
2022/06/28 01:15:21;;;;;;;;;;;17.30;99.90;;;;;;5091402;28;19974;-68
2022/06/28 01:17:48;;;;;;;;;;;17.30;99.90;;;;;;5094240;28;19935;-68
2022/06/28 01:20:16;;;;;;;;;;;17.30;99.90;;;;;;5095375;28;19926;-68
2022/06/28 01:22:45;;;;;;;;;;;17.30;99.90;;;;;;5094993;28;20023;-68
2022/06/28 01:25:12;;;;;;;;;;;17.30;99.90;;;;;;5094741;28;19924;-69
2022/06/28 01:27:40;;;;;;;;;;;17.30;99.90;;;;;;5094928;28;20031;-69
2022/06/28 01:30:07;;;;;;;;;;;17.40;99.90;;;;;;5094809;28;19924;-69
2022/06/28 01:32:35;;;;;;;;;;;17.40;99.90;;;;;;5094617;28;19924;-68
2022/06/28 01:35:02;;;;;;;;;;;17.50;99.90;;;;;;5094377;28;20341;-68
2022/06/28 01:37:29;;;;;;;;;;;17.50;99.90;;;;;;5095069;28;20315;-70
2022/06/28 01:39:57;;;;;;;;;;;17.50;99.90;;;;;;5094879;28;19931;-70
2022/06/28 01:42:24;;;;;;;;;;;17.50;99.90;;;;;;5094548;28;19924;-69
2022/06/28 01:44:51;;;;;;;;;;;17.40;99.90;;;;;;5094494;28;20007;-69
2022/06/28 01:47:19;;;;;;;;;;;17.30;99.90;;;;;;5094476;28;19967;-69
2022/06/28 01:49:46;;;;;;;;;;;17.20;99.90;;;;;;5094736;28;19929;-68
2022/06/28 01:52:12;;;;;;;;;;;17.30;99.90;;;;;;5094476;28;20322;-68
2022/06/28 01:54:39;;;;;;;;;;;17.40;99.90;;;;;;5094298;28;19928;-68
2022/06/28 01:57:08;;;;;;;;;;;17.40;99.90;;;;;;5094360;28;19924;-68
2022/06/28 01:59:35;;;;;;;;;;;17.30;99.90;;;;;;5094396;28;19931;-70
2022/06/28 02:02:01;;;;;;;;;;;17.30;99.90;;;;;;5094245;28;19969;-70
2022/06/28 02:04:29;;;;;;;;;;;17.40;99.90;;;;;;5094220;28;19924;-68
2022/06/28 02:06:56;;;;;;;;;;;17.40;99.90;;;;;;5094283;28;19931;-68
2022/06/28 02:09:23;;;;;;;;;;;17.40;99.90;;;;;;5094185;28;19924;-68
2022/06/28 02:11:50;;;;;;;;;;;17.30;99.90;;;;;;5094256;28;19997;-68
2022/06/28 02:14:19;;;;;;;;;;;17.30;99.90;;;;;;5093949;28;19978;-68
2022/06/28 02:16:46;;;;;;;;;;;17.30;99.90;;;;;;5093759;28;20338;-68
2022/06/28 02:19:13;;;;;;;;;;;17.10;99.90;;;;;;5093995;28;19931;-68
2022/06/28 02:21:41;;;;;;;;;;;17.10;99.90;;;;;;5093926;28;19935;-68
2022/06/28 02:24:08;;;;;;;;;;;17.00;99.90;;;;;;5093824;28;19955;-69
2022/06/28 02:26:35;;;;;;;;;;;16.90;99.90;;;;;;5093658;28;19927;-69
2022/06/28 02:29:03;;;;;;;;;;;16.80;99.90;;;;;;5093904;28;19924;-70
2022/06/28 02:31:31;;;;;;;;;;;16.80;99.90;;;;;;5094023;28;19958;-69
2022/06/28 02:33:58;;;;;;;;;;;16.70;99.90;;;;;;5093621;28;20426;-69
2022/06/28 02:41:51;;;;;;;;;;;16.50;99.90;;;;;;5092287;28;19974;-70
2022/06/28 02:44:19;;;;;;;;;;;16.50;99.90;;;;;;5093523;28;19928;-70
2022/06/28 02:46:47;;;;;;;;;;;16.50;99.90;;;;;;5093380;28;19993;-70
2022/06/28 02:49:14;;;;;;;;;;;16.40;99.90;;;;;;5093704;28;19924;-70
2022/06/28 02:51:41;;;;;;;;;;;16.40;99.90;;;;;;5093299;28;19953;-70
2022/06/28 02:54:09;;;;;;;;;;;16.40;99.90;;;;;;5093247;28;19931;-69
2022/06/28 02:56:37;;;;;;;;;;;16.30;99.90;;;;;;5093010;28;20335;-69
2022/06/28 02:59:04;;;;;;;;;;;16.30;99.90;;;;;;5093241;28;19924;-69
2022/06/28 03:01:31;;;;;;;;;;;16.30;99.90;;;;;;5093053;28;19924;-69
2022/06/28 03:03:59;;;;;;;;;;;16.20;99.90;;;;;;5093199;28;19924;-70
2022/06/28 03:06:26;;;;;;;;;;;16.20;99.90;;;;;;5093137;28;19969;-70
2022/06/28 03:08:53;;;;;;;;;;;16.20;99.90;;;;;;5093499;28;19928;-70
2022/06/28 03:11:20;;;;;;;;;;;16.20;99.90;;;;;;5093438;28;19951;-70
2022/06/28 03:13:47;;;;;;;;;;;16.10;99.90;;;;;;5092966;28;19924;-70
2022/06/28 03:16:14;;;;;;;;;;;16.00;99.90;;;;;;5092751;28;19924;-70
2022/06/28 03:18:40;;;;;;;;;;;16.00;99.90;;;;;;5093009;28;20465;-70
2022/06/28 03:21:09;;;;;;;;;;;16.00;99.90;;;;;;5092848;28;19931;-70
2022/06/28 03:23:35;;;;;;;;;;;15.90;99.90;;;;;;5093170;28;19924;-70
2022/06/28 03:26:02;;;;;;;;;;;15.90;99.90;;;;;;5092648;28;19928;-70
2022/06/28 03:28:29;;;;;;;;;;;15.90;99.90;;;;;;5092612;28;19924;-70
2022/06/28 03:30:56;;;;;;;;;;;15.90;99.90;;;;;;5093081;28;19928;-70
2022/06/28 03:33:22;;;;;;;;;;;15.90;99.90;;;;;;5092630;28;19924;-69
2022/06/28 03:35:49;;;;;;;;;;;15.80;99.90;;;;;;5092659;28;20045;-69
2022/06/28 03:38:17;;;;;;;;;;;15.90;99.90;;;;;;5092940;28;20360;-69
2022/06/28 03:40:44;;;;;;;;;;;15.80;99.90;;;;;;5092243;28;20395;-69
2022/06/28 03:43:11;;;;;;;;;;;15.80;99.90;;;;;;5092575;28;19981;-69
2022/06/28 03:45:38;;;;;;;;;;;15.80;99.90;;;;;;5092164;28;19931;-69
2022/06/28 03:48:05;;;;;;;;;;;15.70;99.90;;;;;;5092599;28;19970;-69
2022/06/28 03:50:32;;;;;;;;;;;15.70;99.90;;;;;;5092561;28;19930;-69
2022/06/28 03:52:59;;;;;;;;;;;15.70;99.90;;;;;;5092703;28;19946;-69
2022/06/28 03:55:27;;;;;;;;;;;15.70;99.90;;;;;;5092113;28;19928;-69
2022/06/28 03:57:54;;;;;;;;;;;15.70;99.90;;;;;;5092417;28;19928;-69
2022/06/28 04:00:21;;;;;;;;;;;15.70;99.90;;;;;;5092328;28;19931;-69
2022/06/28 04:02:48;;;;;;;;;;;15.70;99.90;;;;;;5092282;28;19924;-69
2022/06/28 04:05:15;;;;;;;;;;;15.70;99.90;;;;;;5091943;28;20415;-69
2022/06/28 04:07:42;;;;;;;;;;;15.70;99.90;;;;;;5092463;28;19928;-69
2022/06/28 04:10:09;;;;;;;;;;;15.80;99.90;;;;;;5092614;28;19924;-69
2022/06/28 04:12:37;;;;;;;;;;;15.80;99.90;;;;;;5092472;28;20372;-69
2022/06/28 04:15:04;;;;;;;;;;;15.80;99.90;;;;;;5092048;28;20380;-69
2022/06/28 04:17:31;;;;;;;;;;;15.90;99.90;;;;;;5092545;28;20355;-70
2022/06/28 04:19:58;;;;;;;;;;;16.00;99.90;;;;;;5092717;28;19928;-70
2022/06/28 04:22:25;;;;;;;;;;;16.00;99.90;;;;;;5092096;28;19924;-71
2022/06/28 04:24:51;;;;;;;;;;;16.00;99.90;;;;;;5091760;28;19927;-70
2022/06/28 04:27:18;;;;;;;;;;;15.90;99.90;;;;;;5092077;28;19928;-70
2022/06/28 04:29:46;;;;;;;;;;;16.00;99.90;;;;;;5092114;28;19924;-70
2022/06/28 04:32:13;;;;;;;;;;;16.00;99.90;;;;;;5092099;28;19924;-70
2022/06/28 04:34:40;;;;;;;;;;;16.00;99.90;;;;;;5092063;28;20368;-70
2022/06/28 04:37:07;;;;;;;;;;;16.00;99.90;;;;;;5091736;28;19931;-70
2022/06/28 04:39:34;;;;;;;;;;;16.00;99.90;;;;;;5092062;28;19935;-70
2022/06/28 04:42:02;;;;;;;;;;;15.90;99.90;;;;;;5091971;28;19924;-69
2022/06/28 04:44:29;;;;;;;;;;;15.90;99.90;;;;;;5092017;28;19964;-69
2022/06/28 04:46:57;;;;;;;;;;;15.90;99.90;;;;;;5091671;28;20368;-69
2022/06/28 04:49:24;;;;;;;;;;;15.80;99.90;;;;;;5092117;28;19924;-69
2022/06/28 04:51:51;;;;;;;;;;;15.80;99.90;;;;;;5093371;28;19935;-70
2022/06/28 04:54:18;;;;;;;;;;;15.80;99.90;;;;;;5095723;28;19931;-70
2022/06/28 04:56:44;;;;;;;;;;;15.90;99.90;;;;;;5095564;28;19967;-69
2022/06/28 04:59:11;;;;;;;;;;;16.00;99.90;;;;;;5095597;28;19928;-69
2022/06/28 05:01:38;;;;;;;;;;;16.00;99.90;;;;;;5095779;28;19928;-69
2022/06/28 05:04:06;;;;;;;;;;;16.00;99.90;;;;;;5095592;28;19931;-70
2022/06/28 05:06:33;;;;;;;;;;;16.00;99.90;;;;;;5095366;28;19924;-70
2022/06/28 05:09:00;;;;;;;;;;;16.00;99.90;;;;;;5095828;28;20407;-70
2022/06/28 05:11:27;;;;;;;;;;;16.10;99.90;;;;;;5095606;28;19925;-70
2022/06/28 05:13:53;;;;;;;;;;;16.10;99.90;;;;;;5095145;28;19924;-70
2022/06/28 05:16:20;;;;;;;;;;;16.10;99.90;;;;;;5095078;28;20416;-69
2022/06/28 05:18:47;;;;;;;;;;;16.20;99.90;;;;;;5095361;28;19973;-70
2022/06/28 05:21:15;;;;;;;;;;;16.20;99.90;;;;;;5095248;28;19928;-69
2022/06/28 05:23:42;;;;;;;;;;;16.20;99.90;;;;;;5095379;28;19935;-70
2022/06/28 05:26:09;;;;;;;;;;;16.20;99.90;;;;;;5094901;28;19925;-69
2022/06/28 05:28:36;;;;;;;;;;;16.30;99.90;;;;;;5094880;28;20412;-69
2022/06/28 05:31:03;;;;;;;;;;;16.30;99.90;;;;;;5095227;28;19931;-70
2022/06/28 05:33:30;;;;;;;;;;;16.40;99.90;;;;;;5094735;28;19924;-69
2022/06/28 05:35:57;;;;;;;;;;;16.40;99.90;;;;;;5094896;28;19924;-69
2022/06/28 05:38:25;;;;;;;;;;;16.40;99.90;;;;;;5094884;28;19928;-69
2022/06/28 05:40:52;;;;;;;;;;;16.50;99.90;;;;;;5094970;28;20318;-69
2022/06/28 05:43:19;;;;;;;;;;;16.50;99.90;;;;;;5094728;28;20349;-70
2022/06/28 05:45:45;;;;;;;;;;;16.40;99.90;;;;;;5094573;28;20369;-70
2022/06/28 05:48:12;;;;;;;;;;;16.50;99.90;;;;;;5095108;28;20592;-69
2022/06/28 05:50:39;;;;;;;;;;;16.60;99.90;;;;;;5094558;28;20353;-69
2022/06/28 05:53:06;;;;;;;;;;;16.60;99.90;;;;;;5094521;28;19931;-70
2022/06/28 05:55:34;;;;;;;;;;;16.70;99.90;;;;;;5094603;28;20291;-70
2022/06/28 05:58:01;;;;;;;;;;;16.70;99.90;;;;;;5094380;28;20007;-70
2022/06/28 06:00:28;;;;;;;;;;;16.70;99.90;;;;;;5094556;28;20307;-70
2022/06/28 06:02:55;;;;;;;;;;;16.70;99.90;;;;;;5094094;28;20271;-69
2022/06/28 06:05:22;;;;;;;;;;;16.80;99.90;;;;;;5093976;28;20130;-69
2022/06/28 06:07:48;;;;;;;;;;;16.90;99.90;;;;;;5094348;28;19931;-69
2022/06/28 06:10:15;;;;;;;;;;;17.00;99.90;;;;;;5094282;28;20383;-69
2022/06/28 06:12:43;;;;;;;;;;;17.00;99.90;;;;;;5094250;28;19932;-70
2022/06/28 06:15:10;;;;;;;;;;;17.20;99.90;;;;;;5093758;28;19966;-69
2022/06/28 06:17:37;;;;;;;;;;;17.20;99.90;;;;;;5094235;28;19928;-70
2022/06/28 06:20:05;;;;;;;;;;;17.20;99.90;;;;;;5094173;28;20376;-70
2022/06/28 06:22:31;;;;;;;;;;;17.20;99.90;;;;;;5094317;28;19976;-69
2022/06/28 06:24:59;;;;;;;;;;;17.40;99.90;;;;;;5093449;28;20391;-71
2022/06/28 06:27:26;;;;;;;;;;;17.40;99.90;;;;;;5094431;28;19930;-71
2022/06/28 06:29:54;;;;;;;;;;;17.50;99.90;;;;;;5093975;28;20027;-69
2022/06/28 06:32:21;;;;;;;;;;;17.50;99.90;;;;;;5093857;28;19924;-69
2022/06/28 06:34:48;;;;;;;;;;;17.60;99.90;;;;;;5093427;28;20296;-69
2022/06/28 06:37:15;;;;;;;;;;;17.70;99.90;;;;;;5093646;28;20423;-71
2022/06/28 06:39:41;;;;;;;;;;;17.80;99.90;;;;;;5093721;28;19924;-71
2022/06/28 06:42:08;;;;;;;;;;;18.00;99.90;;;;;;5093409;28;19928;-71
2022/06/28 06:44:35;;;;;;;;;;;17.90;99.90;;;;;;5093374;28;19947;-69
2022/06/28 06:47:04;;;;;;;;;;;18.00;99.90;;;;;;5093164;28;19924;-69
2022/06/28 06:49:31;;;;;;;;;;;18.10;99.90;;;;;;5093615;28;19924;-69
2022/06/28 06:52:00;;;;;;;;;;;18.40;99.90;;;;;;5093476;28;20388;-71
2022/06/28 06:54:27;;;;;;;;;;;18.40;99.90;;;;;;5093343;28;19924;-70
2022/06/28 06:56:54;;;;;;;;;;;18.50;99.90;;;;;;5092950;28;20392;-71
2022/06/28 06:59:21;;;;;;;;;;;18.60;99.90;;;;;;5093489;28;20372;-71
2022/06/28 07:01:48;;;;;;;;;;;18.60;99.90;;;;;;5093203;28;20379;-71
2022/06/28 07:04:16;;;;;;;;;;;18.60;99.90;;;;;;5093169;28;19998;-71
2022/06/28 07:06:43;;;;;;;;;;;18.70;99.90;;;;;;5092867;28;19924;-71
2022/06/28 07:09:09;;;;;;;;;;;18.70;99.90;;;;;;5092944;28;19924;-70
2022/06/28 07:11:36;;;;;;;;;;;18.90;99.90;;;;;;5093594;28;19928;-70
2022/06/28 07:14:03;;;;;;;;;;;18.90;99.90;;;;;;5092548;28;19932;-69
2022/06/28 07:16:30;;;;;;;;;;;19.00;99.90;;;;;;5092987;28;19992;-70
2022/06/28 07:18:57;;;;;;;;;;;19.10;99.90;;;;;;5093250;28;20015;-71
2022/06/28 07:21:26;;;;;;;;;;;19.10;99.90;;;;;;5093087;28;19928;-69
2022/06/28 07:23:52;;;;;;;;;;;19.10;99.90;;;;;;5093025;28;20026;-70
2022/06/28 07:26:19;;;;;;;;;;;19.30;99.90;;;;;;5092443;28;20353;-71
2022/06/28 07:28:46;;;;;;;;;;;19.40;99.90;;;;;;5092740;28;19977;-70
2022/06/28 07:31:15;;;;;;;;;;;19.60;99.90;;;;;;5092930;28;19974;-71
2022/06/28 07:33:42;;;;;;;;;;;19.80;99.90;;;;;;5092695;28;20010;-71
2022/06/28 07:36:09;;;;;;;;;;;19.90;99.90;;;;;;5092296;28;19931;-70
2022/06/28 07:38:37;;;;;;;;;;;19.80;99.90;;;;;;5092626;28;20384;-71
2022/06/28 07:41:04;;;;;;;;;;;19.70;99.90;;;;;;5092577;28;19942;-71
2022/06/28 07:43:31;;;;;;;;;;;20.20;99.90;;;;;;5092425;28;19924;-71
2022/06/28 07:45:58;;;;;;;;;;;20.20;99.90;;;;;;5092601;28;19924;-71
2022/06/28 07:48:25;;;;;;;;;;;20.20;99.90;;;;;;5092976;28;19924;-71
2022/06/28 07:53:37;;;;;;;;;;;20.10;99.90;;;;;;5092293;28;20394;-71
2022/06/28 07:56:04;;;;;;;;;;;20.20;99.90;;;;;;5091820;28;19931;-71
2022/06/28 07:58:31;;;;;;;;;;;20.40;99.90;;;;;;5092372;28;19924;-71
2022/06/28 08:00:59;;;;;;;;;;;20.50;99.90;;;;;;5092254;28;19924;-71
2022/06/28 08:03:25;;;;;;;;;;;20.90;99.90;;;;;;5092257;28;19924;-71
2022/06/28 08:05:52;;;;;;;;;;;20.70;99.90;;;;;;5091995;28;19924;-71
2022/06/28 08:08:19;;;;;;;;;;;21.00;99.90;;;;;;5092034;28;20446;-71
2022/06/28 08:10:48;;;;;;;;;;;21.30;99.90;;;;;;5091933;28;20462;-71
2022/06/28 08:13:16;;;;;;;;;;;21.50;99.90;;;;;;5092346;28;19931;-71
2022/06/28 08:15:43;;;;;;;;;;;21.10;99.90;;;;;;5091954;28;20388;-71
2022/06/28 08:18:10;;;;;;;;;;;21.30;99.90;;;;;;5092245;28;20346;-71
2022/06/28 08:20:37;;;;;;;;;;;21.90;99.90;;;;;;5092120;28;19947;-69
2022/06/28 08:23:03;;;;;;;;;;;22.20;99.90;;;;;;5091740;28;19924;-71
2022/06/28 08:25:30;;;;;;;;;;;22.20;99.90;;;;;;5092854;28;19970;-70
2022/06/28 08:27:58;;;;;;;;;;;22.50;99.90;;;;;;5096541;28;19982;-71
2022/06/28 08:30:27;;;;;;;;;;;22.10;99.90;;;;;;5096083;28;20276;-70
2022/06/28 08:32:54;;;;;;;;;;;22.20;99.90;;;;;;5095916;28;20392;-71
2022/06/28 08:35:20;;;;;;;;;;;23.00;99.90;;;;;;5095636;28;19928;-70
2022/06/28 08:37:47;;;;;;;;;;;23.10;99.90;;;;;;5095963;28;19925;-70
2022/06/28 08:40:14;;;;;;;;;;;23.50;99.90;;;;;;5096293;28;19924;-70
2022/06/28 08:42:45;;;;;;;;;;;23.10;99.90;;;;;;5095731;28;19924;-70
2022/06/28 08:45:14;;;;;;;;;;;23.70;99.90;;;;;;5095669;28;20202;-70
2022/06/28 08:47:42;;;;;;;;;;;23.60;99.90;;;;;;5095781;28;20357;-70
2022/06/28 08:50:13;;;;;;;;;;;23.70;99.90;;;;;;5095406;28;19924;-70
2022/06/28 08:52:41;;;;;;;;;;;24.40;99.90;;;;;;5095281;28;19970;-71
2022/06/28 08:55:09;;;;;;;;;;;25.20;99.40;;;;;;5095084;28;19924;-71
2022/06/28 08:57:36;;;;;;;;;;;25.90;98.20;;;;;;5095854;28;20330;-72
2022/06/28 09:00:05;;;;;;;;;;;25.00;97.90;;;;;;5095573;28;19924;-70
2022/06/28 09:02:34;;;;;;;;;;;25.10;96.40;;;;;;5095218;28;19978;-71
2022/06/28 09:05:01;;;;;;;;;;;25.60;97.70;;;;;;5095088;28;19928;-71
2022/06/28 09:07:28;;;;;;;;;;;26.90;95.50;;;;;;5095091;28;19924;-70
2022/06/28 09:09:54;;;;;;;;;;;27.10;94.50;;;;;;5095426;28;20022;-70
2022/06/28 09:12:21;;;;;;;;;;;27.50;94.10;;;;;;5095094;28;19924;-71
2022/06/28 09:14:48;;;;;;;;;;;28.30;93.20;;;;;;5094856;28;19977;-70
2022/06/28 09:17:19;;;;;;;;;;;28.80;92.00;;;;;;5095182;28;19997;-70
2022/06/28 09:19:48;;;;;;;;;;;29.20;90.20;;;;;;5095440;28;19924;-70
2022/06/28 09:22:28;;;;;;;;;;;29.40;90.10;;;;;;5094910;28;19928;-70
2022/06/28 09:24:55;;;;;;;;;;;29.80;87.20;;;;;;5095258;28;20388;-71
2022/06/28 09:27:27;;;;;;;;;;;30.20;88.80;;;;;;5095143;28;20380;-72
2022/06/28 09:29:54;;;;;;;;;;;30.10;89.10;;;;;;5095140;28;19934;-70
2022/06/28 09:32:26;;;;;;;;;;;29.60;86.70;;;;;;5095180;28;19985;-70
2022/06/28 09:34:56;;;;;;;;;;;29.50;87.50;;;;;;5094976;28;19974;-71
2022/06/28 09:37:33;;;;;;;;;;;30.60;87.90;;;;;;5094053;28;19928;-72
2022/06/28 09:40:09;;;;;;;;;;;30.50;86.30;;;;;;5094763;28;20296;-72
2022/06/28 09:42:36;;;;;;;;;;;30.50;87.00;;;;;;5094660;28;19928;-70
2022/06/28 09:45:03;;;;;;;;;;;30.80;85.90;;;;;;5094552;28;19928;-72
2022/06/28 09:47:29;;;;;;;;;;;30.00;86.60;;;;;;5094574;28;19924;-70
2022/06/28 09:49:58;;;;;;;;;;;30.00;88.00;;;;;;5094552;28;19981;-72
2022/06/28 09:52:28;;;;;;;;;;;30.30;86.50;;;;;;5094429;28;19924;-70
2022/06/28 09:54:55;;;;;;;;;;;30.80;84.90;;;;;;5094399;28;19930;-71
2022/06/28 09:57:22;;;;;;;;;;;30.90;83.30;;;;;;5094667;28;19937;-70
2022/06/28 09:59:50;;;;;;;;;;;30.90;84.20;;;;;;5094431;28;19924;-70
2022/06/28 10:02:18;;;;;;;;;;;30.90;79.80;;;;;;5094249;28;19938;-70
2022/06/28 10:04:45;;;;;;;;;;;31.60;87.80;;;;;;5094356;28;20022;-70
2022/06/28 10:07:13;;;;;;;;;;;30.50;82.60;;;;;;5094140;28;19962;-72
2022/06/28 10:09:40;;;;;;;;;;;29.80;84.50;;;;;;5094292;28;19924;-71
2022/06/28 10:15:03;;;;;;;;;;;28.70;82.10;;;;;;5094069;28;20397;-71
2022/06/28 10:17:45;;;;;;;;;;;28.70;84.60;;;;;;5094253;28;19924;-71
2022/06/28 10:20:13;;;;;;;;;;;30.00;85.50;;;;;;5090847;28;19941;-72
2022/06/28 10:22:41;;;;;;;;;;;30.80;81.90;;;;;;5094047;28;19924;-72
2022/06/28 10:25:14;;;;;;;;;;;31.40;79.30;;;;;;5093677;28;19931;-72
2022/06/28 10:27:44;;;;;;;;;;;31.50;80.10;;;;;;5094058;28;20437;-72
2022/06/28 10:30:19;;;;;;;;;;;32.00;77.90;;;;;;5094202;28;19925;-71
2022/06/28 10:32:47;;;;;;;;;;;31.60;77.80;;;;;;5093957;28;19928;-71
2022/06/28 10:35:28;;;;;;;;;;;31.40;80.50;;;;;;5093314;28;20379;-71
2022/06/28 10:38:14;;;;;;;;;;;31.40;77.70;;;;;;5093212;28;19931;-72
2022/06/28 10:40:47;;;;;;;;;;;31.60;75.90;;;;;;5093751;28;19924;-71
2022/06/28 10:43:14;;;;;;;;;;;31.40;76.80;;;;;;5093832;28;19963;-71
2022/06/28 10:45:56;;;;;;;;;;;32.60;77.30;;;;;;5093539;28;19924;-71
2022/06/28 10:48:25;;;;;;;;;;;33.40;75.90;;;;;;5092252;28;20288;-70
2022/06/28 10:50:56;;;;;;;;;;;32.50;75.80;;;;;;5092857;28;19939;-70
2022/06/28 10:53:22;;;;;;;;;;;32.00;78.10;;;;;;5093406;28;19947;-69
2022/06/28 10:56:04;;;;;;;;;;;31.60;77.80;;;;;;5093194;28;20380;-72
2022/06/28 10:58:32;;;;;;;;;;;32.00;76.40;;;;;;5092684;28;19924;-71
2022/06/28 11:00:59;;;;;;;;;;;31.80;72.90;;;;;;5093411;28;19924;-72
2022/06/28 11:03:26;;;;;;;;;;;32.40;72.00;;;;;;5093429;28;20065;-71
2022/06/28 11:05:54;;;;;;;;;;;32.80;73.40;;;;;;5093031;28;20345;-71
2022/06/28 11:08:39;;;;;;;;;;;33.10;70.50;;;;;;5093537;28;19928;-71
2022/06/28 11:11:06;;;;;;;;;;;33.00;69.30;;;;;;5093028;28;19928;-71
2022/06/28 11:13:34;;;;;;;;;;;33.40;69.20;;;;;;5093239;28;19984;-71
2022/06/28 11:16:01;;;;;;;;;;;33.10;67.90;;;;;;5092594;28;19924;-71
2022/06/28 11:18:29;;;;;;;;;;;33.00;66.00;;;;;;5092962;28;19924;-71
2022/06/28 11:20:56;;;;;;;;;;;33.40;67.20;;;;;;5092853;28;20007;-72
2022/06/28 11:23:24;;;;;;;;;;;33.50;66.00;;;;;;5092755;28;19973;-70
2022/06/28 11:28:49;;;;;;;;;;;33.20;62.50;;;;;;5092757;28;20001;-71
2022/06/28 11:31:18;;;;;;;;;;;33.30;66.50;;;;;;5092257;28;19935;-71
2022/06/28 11:33:45;;;;;;;;;;;34.20;66.40;;;;;;5092503;28;20349;-71
2022/06/28 11:36:20;;;;;;;;;;;34.30;66.10;;;;;;5092301;28;19924;-71
2022/06/28 11:38:47;;;;;;;;;;;34.00;66.60;;;;;;5092582;28;19969;-71
2022/06/28 11:41:27;;;;;;;;;;;33.50;65.30;;;;;;5092546;28;20388;-72
2022/06/28 11:43:56;;;;;;;;;;;34.30;63.70;;;;;;5092423;28;19924;-71
2022/06/28 11:46:25;;;;;;;;;;;33.80;64.10;;;;;;5092392;28;19931;-71
2022/06/28 11:48:52;;;;;;;;;;;34.30;65.00;;;;;;5092374;28;19954;-71
2022/06/28 11:51:25;;;;;;;;;;;34.10;65.10;;;;;;5092206;28;19930;-72
2022/06/28 11:53:52;;;;;;;;;;;33.50;63.50;;;;;;5092500;28;19924;-70
2022/06/28 11:56:18;;;;;;;;;;;33.00;62.90;;;;;;5092151;28;19924;-70
2022/06/28 11:58:45;;;;;;;;;;;33.90;63.40;;;;;;5092401;28;19977;-70
2022/06/28 12:01:13;;;;;;;;;;;35.00;63.30;;;;;;5091931;28;20299;-70
2022/06/28 12:03:56;;;;;;;;;;;35.80;62.90;;;;;;5092021;28;19925;-70
2022/06/28 12:06:25;;;;;;;;;;;34.60;62.50;;;;;;5091927;28;19928;-69
2022/06/28 12:08:53;;;;;;;;;;;34.60;62.90;;;;;;5092391;28;19924;-71
2022/06/28 12:11:25;;;;;;;;;;;35.50;62.70;;;;;;5091507;28;20531;-71
2022/06/28 12:13:54;;;;;;;;;;;35.40;61.80;;;;;;5092084;28;19932;-70
2022/06/28 12:16:21;;;;;;;;;;;35.00;61.60;;;;;;5091678;28;20387;-70
2022/06/28 12:18:52;;;;;;;;;;;35.30;61.90;;;;;;5091989;28;19924;-70
2022/06/28 12:21:19;;;;;;;;;;;35.50;61.10;;;;;;5092037;28;20399;-70
2022/06/28 12:23:51;;;;;;;;;;;34.80;61.80;;;;;;5092124;28;19970;-70
2022/06/28 12:26:18;;;;;;;;;;;34.40;61.50;;;;;;5092468;28;19958;-69
2022/06/28 12:28:45;;;;;;;;;;;35.30;62.00;;;;;;5092121;28;19924;-70
2022/06/28 12:31:12;;;;;;;;;;;35.70;61.90;;;;;;5092110;28;19924;-70
2022/06/28 12:33:39;;;;;;;;;;;36.10;60.60;;;;;;5091961;28;19931;-70
2022/06/28 12:36:06;;;;;;;;;;;36.50;59.90;;;;;;5091740;28;20384;-70
2022/06/28 12:38:33;;;;;;;;;;;36.70;60.80;;;;;;5092036;28;19924;-70
2022/06/28 12:41:01;;;;;;;;;;;36.50;61.10;;;;;;5092574;28;19924;-70
2022/06/28 12:43:28;;;;;;;;;;;34.10;62.60;;;;;;5092134;28;19935;-70
2022/06/28 12:45:55;;;;;;;;;;;34.30;63.30;;;;;;5091804;28;19924;-70
2022/06/28 12:48:21;;;;;;;;;;;33.60;62.50;;;;;;5091799;28;19925;-70
2022/06/28 12:50:48;;;;;;;;;;;32.50;65.90;;;;;;5091885;28;20352;-70
2022/06/28 12:53:15;;;;;;;;;;;33.50;65.30;;;;;;5092050;28;19928;-70
2022/06/28 12:55:42;;;;;;;;;;;34.20;63.70;;;;;;5091674;28;19931;-72
2022/06/28 12:58:10;;;;;;;;;;;34.90;62.90;;;;;;5091835;28;20448;-70
2022/06/28 13:00:37;;;;;;;;;;;34.30;64.40;;;;;;5091759;28;19931;-70
2022/06/28 13:03:05;;;;;;;;;;;33.30;63.50;;;;;;5091811;28;19947;-70
2022/06/28 13:05:32;;;;;;;;;;;33.00;64.30;;;;;;5091458;28;19975;-70
2022/06/28 13:08:00;;;;;;;;;;;32.80;64.90;;;;;;5091631;28;19925;-70
2022/06/28 13:10:27;;;;;;;;;;;33.80;65.00;;;;;;5091387;28;20413;-70
2022/06/28 13:12:54;;;;;;;;;;;35.30;64.00;;;;;;5093375;28;19977;-70
2022/06/28 13:15:22;;;;;;;;;;;34.80;62.60;;;;;;5095081;28;19924;-70
2022/06/28 13:17:49;;;;;;;;;;;34.80;63.30;;;;;;5095556;28;19928;-70
2022/06/28 13:20:18;;;;;;;;;;;34.20;62.90;;;;;;5094979;28;19924;-70
2022/06/28 13:22:44;;;;;;;;;;;34.00;63.90;;;;;;5095157;28;19930;-70
2022/06/28 13:25:12;;;;;;;;;;;33.00;62.00;;;;;;5095048;28;20380;-70
2022/06/28 13:27:39;;;;;;;;;;;32.70;64.60;;;;;;5095270;28;19984;-70
2022/06/28 13:30:07;;;;;;;;;;;33.60;62.40;;;;;;5094853;28;20334;-70
2022/06/28 13:32:35;;;;;;;;;;;33.60;62.70;;;;;;5094893;28;19948;-70
2022/06/28 13:35:02;;;;;;;;;;;34.50;62.70;;;;;;5094988;28;19925;-70
2022/06/28 13:37:29;;;;;;;;;;;33.80;62.20;;;;;;5094788;28;20307;-70
2022/06/28 13:39:56;;;;;;;;;;;35.30;62.60;;;;;;5094791;28;19924;-71
2022/06/28 13:42:23;;;;;;;;;;;35.10;61.40;;;;;;5095292;28;19928;-71
2022/06/28 13:44:50;;;;;;;;;;;34.20;61.00;;;;;;5095759;28;19982;-72
2022/06/28 13:47:16;;;;;;;;;;;34.40;62.40;;;;;;5094713;28;19925;-72
2022/06/28 13:49:45;;;;;;;;;;;35.50;61.60;;;;;;5094811;28;19947;-72
2022/06/28 13:52:11;;;;;;;;;;;34.50;61.30;;;;;;5094645;28;20138;-72
2022/06/28 13:54:38;;;;;;;;;;;35.00;61.40;;;;;;5094428;28;19932;-72
2022/06/28 13:57:05;;;;;;;;;;;35.40;61.00;;;;;;5094506;28;19977;-71
2022/06/28 13:59:32;;;;;;;;;;;35.40;60.80;;;;;;5094371;28;19924;-71
2022/06/28 14:01:59;;;;;;;;;;;34.60;62.40;;;;;;5094205;28;19969;-70
2022/06/28 14:04:26;;;;;;;;;;;33.40;62.10;;;;;;5094361;28;19923;-72
2022/06/28 14:06:54;;;;;;;;;;;34.20;62.90;;;;;;5094241;28;19931;-73
2022/06/28 14:09:21;;;;;;;;;;;33.60;63.20;;;;;;5094236;28;19953;-70
2022/06/28 14:11:48;;;;;;;;;;;31.70;65.10;;;;;;5094153;28;20027;-71
2022/06/28 14:14:15;;;;;;;;;;;32.40;66.00;;;;;;5094140;28;19968;-70
2022/06/28 14:16:42;;;;;;;;;;;31.60;66.10;;;;;;5094042;28;20372;-70
2022/06/28 14:19:09;;;;;;;;;;;30.70;68.20;;;;;;5094210;28;19924;-70
2022/06/28 14:21:36;;;;;;;;;;;31.00;67.00;;;;;;5094066;28;19988;-71
2022/06/28 14:24:04;;;;;;;;;;;31.10;67.40;;;;;;5093809;28;19931;-71
2022/06/28 14:26:31;;;;;;;;;;;32.30;67.50;;;;;;5093677;28;19931;-71
2022/06/28 14:28:58;;;;;;;;;;;32.50;66.30;;;;;;5093985;28;19986;-73
2022/06/28 14:31:25;;;;;;;;;;;31.50;66.30;;;;;;5093969;28;19931;-72
2022/06/28 14:33:51;;;;;;;;;;;31.80;67.40;;;;;;5093575;28;20310;-72